createdAt,value
2022-11-17T09:01:06.869Z,3.00
2022-11-17T09:03:34.498Z,3.00
2022-11-17T09:06:02.471Z,2.00
2022-11-17T09:08:56.189Z,3.50
2022-11-17T09:11:17.076Z,2.50
2022-11-17T09:13:45.972Z,10.00
2022-11-17T09:16:12.984Z,3.00
2022-11-17T09:18:41.489Z,3.00
2022-11-17T09:21:12.458Z,3.00
2022-11-17T09:23:40.145Z,3.75
2022-11-17T09:26:12.898Z,2.25
2022-11-17T09:28:41.072Z,3.00
2022-11-17T09:31:14.545Z,3.00
2022-11-17T09:33:42.782Z,2.00
2022-11-17T09:36:11.222Z,2.00
2022-11-17T09:38:40.016Z,3.00
2022-11-17T09:41:35.926Z,2.75
2022-11-17T09:44:25.079Z,2.00
2022-11-17T09:47:06.342Z,2.75
2022-11-17T09:49:37.039Z,2.75
2022-11-17T09:52:31.338Z,3.50
2022-11-17T09:55:15.445Z,4.75
2022-11-17T09:57:45.699Z,3.00
2022-11-17T10:00:15.578Z,3.75
2022-11-17T10:02:43.409Z,2.00
2022-11-17T10:05:31.593Z,2.25
2022-11-17T10:08:15.019Z,3.50
2022-11-17T10:10:49.205Z,1.00
2022-11-17T10:13:27.381Z,3.00
2022-11-17T10:16:01.406Z,3.50
2022-11-17T10:18:36.580Z,4.25
2022-11-17T10:21:07.378Z,4.75
2022-11-17T10:23:42.828Z,3.00
2022-11-17T10:26:16.599Z,3.00
2022-11-17T10:28:43.707Z,2.25
2022-11-17T10:31:12.933Z,3.00
2022-11-17T10:33:51.152Z,2.75
2022-11-17T10:36:25.714Z,5.00
2022-11-17T10:38:55.091Z,3.00
2022-11-17T10:41:42.215Z,3.00
2022-11-17T10:44:23.434Z,1.00
2022-11-17T10:47:25.450Z,2.00
2022-11-17T10:50:05.782Z,3.25
2022-11-17T10:52:33.268Z,3.00
2022-11-17T10:55:20.654Z,2.50
2022-11-17T10:57:52.148Z,2.25
2022-11-17T11:00:25.650Z,4.25
2022-11-17T11:03:20.294Z,3.00
2022-11-17T11:06:23.409Z,5.50
2022-11-17T11:09:06.257Z,3.50
2022-11-17T11:11:54.425Z,4.50
2022-11-17T11:14:39.031Z,2.00
2022-11-17T11:17:12.385Z,6.00
2022-11-17T11:19:42.421Z,3.50
2022-11-17T11:22:34.045Z,2.00
2022-11-17T11:25:30.287Z,2.75
2022-11-17T11:28:35.472Z,5.50
2022-11-17T11:31:15.489Z,6.00
2022-11-17T11:33:54.005Z,3.00
2022-11-17T11:36:31.036Z,3.00
2022-11-17T11:39:06.895Z,3.00
2022-11-17T11:42:08.174Z,4.25
2022-11-17T11:44:59.697Z,5.50
2022-11-17T11:47:44.815Z,4.25
2022-11-17T11:50:19.033Z,3.50
2022-11-17T11:52:51.343Z,4.25
2022-11-17T11:55:29.233Z,5.50
2022-11-17T11:58:08.873Z,3.00
2022-11-17T12:00:37.602Z,1.00
2022-11-17T12:03:20.341Z,4.00
2022-11-17T12:06:28.445Z,5.00
2022-11-17T12:09:30.677Z,6.50
2022-11-17T12:12:02.233Z,4.00
2022-11-17T12:14:38.097Z,5.00
2022-11-17T12:17:23.642Z,6.00
2022-11-17T12:19:59.889Z,2.25
2022-11-17T12:22:30.126Z,3.00
2022-11-17T12:25:00.317Z,3.75
2022-11-17T12:27:34.602Z,6.25
2022-11-17T12:30:04.127Z,4.00
2022-11-17T12:32:46.645Z,6.75
2022-11-17T12:35:37.880Z,3.75
2022-11-17T12:38:15.507Z,3.00
2022-11-17T12:40:49.542Z,4.50
2022-11-17T12:43:16.886Z,3.00
2022-11-17T12:45:53.037Z,4.25
2022-11-17T12:48:38.352Z,1.00
2022-11-17T12:51:17.525Z,0.00
2022-11-17T12:54:07.414Z,7.00
2022-11-17T12:56:58.656Z,4.50
2022-11-17T12:59:34.805Z,5.25
2022-11-17T13:02:05.768Z,1.25
2022-11-17T13:04:36.168Z,4.75
2022-11-17T13:07:06.880Z,5.00
2022-11-17T13:09:36.704Z,6.25
2022-11-17T13:12:10.058Z,8.50
2022-11-17T13:14:58.718Z,7.00
2022-11-17T13:17:32.419Z,6.00
2022-11-17T13:20:13.381Z,7.25
2022-11-17T13:22:42.091Z,4.25
2022-11-17T13:25:21.679Z,6.00
2022-11-17T13:27:54.924Z,7.00
2022-11-17T13:30:27.995Z,5.00
2022-11-17T13:32:56.747Z,5.75
2022-11-17T13:35:29.001Z,7.00
2022-11-17T13:38:24.652Z,6.75
2022-11-17T13:40:53.627Z,1.00
2022-11-17T13:43:23.529Z,7.00
2022-11-17T13:45:53.374Z,3.67
2022-11-17T13:48:43.776Z,7.50
2022-11-17T13:51:20.402Z,6.25
2022-11-17T13:53:52.120Z,6.25
2022-11-17T13:56:31.559Z,10.25
2022-11-17T13:59:02.576Z,6.25
2022-11-17T14:01:33.156Z,6.00
2022-11-17T14:04:20.320Z,8.25
2022-11-17T14:07:00.367Z,9.25
2022-11-17T14:09:31.039Z,8.00
2022-11-17T14:11:59.110Z,7.75
2022-11-17T14:14:36.460Z,5.75
2022-11-17T14:17:19.739Z,5.75
2022-11-17T14:19:47.378Z,7.75
2022-11-17T14:22:22.286Z,7.75
2022-11-17T14:24:52.090Z,3.00
2022-11-17T14:27:36.693Z,7.00
2022-11-17T14:30:06.773Z,6.00
2022-11-17T14:32:35.411Z,6.25
2022-11-17T14:35:02.656Z,6.75
2022-11-17T14:37:32.463Z,0.00
2022-11-17T14:40:00.928Z,9.50
2022-11-17T14:42:32.873Z,9.50
2022-11-17T14:45:01.771Z,7.75
2022-11-17T14:47:29.179Z,8.75
2022-11-17T14:49:56.243Z,8.00
2022-11-17T14:52:23.857Z,9.00
2022-11-17T14:54:50.984Z,7.25
2022-11-17T14:57:21.444Z,5.25
2022-11-17T14:59:48.487Z,0.00
2022-11-17T15:02:15.965Z,7.00
2022-11-17T15:04:50.544Z,8.50
2022-11-17T15:07:19.108Z,9.25
2022-11-17T15:09:46.268Z,10.75
2022-11-17T15:12:13.876Z,8.25
2022-11-17T15:14:40.982Z,6.00
2022-11-17T15:17:13.831Z,7.50
2022-11-17T15:19:42.840Z,10.25
2022-11-17T15:22:10.195Z,11.25
2022-11-17T15:24:37.406Z,10.33
2022-11-17T15:27:04.859Z,0.00
2022-11-17T15:29:31.956Z,10.50
2022-11-17T15:31:59.390Z,7.50
2022-11-17T15:34:26.609Z,8.00
2022-11-17T15:36:54.484Z,10.25
2022-11-17T15:39:21.631Z,10.00
2022-11-17T15:41:50.774Z,9.00
2022-11-17T17:01:12.579Z,11.00
2022-11-17T17:03:41.536Z,11.50
2022-11-17T17:06:19.167Z,11.00
2022-11-17T17:08:46.687Z,12.00
2022-11-17T17:11:16.111Z,11.00
2022-11-17T17:13:44.027Z,9.25
2022-11-17T17:16:16.608Z,12.75
2022-11-17T17:18:44.397Z,11.00
2022-11-17T17:21:19.584Z,10.75
2022-11-17T17:23:47.107Z,11.00
2022-11-17T17:26:18.331Z,12.00
2022-11-17T17:28:47.452Z,14.00
2022-11-17T17:31:21.374Z,10.75
2022-11-17T17:33:51.094Z,12.00
2022-11-17T17:36:23.469Z,7.75
2022-11-17T17:38:55.819Z,8.00
2022-11-17T17:41:27.887Z,11.00
2022-11-17T17:44:00.664Z,11.25
2022-11-17T17:46:31.654Z,11.00
2022-11-17T17:48:59.415Z,11.75
2022-11-17T17:51:28.400Z,10.50
2022-11-17T17:53:58.458Z,13.00
2022-11-17T17:56:25.811Z,10.50
2022-11-17T17:58:57.292Z,0.00
2022-11-17T18:01:26.889Z,11.25
2022-11-17T18:04:04.841Z,14.00
2022-11-17T18:06:38.292Z,11.25
2022-11-17T18:09:11.090Z,11.75
2022-11-17T18:11:45.951Z,11.00
2022-11-17T18:14:13.827Z,10.25
2022-11-17T18:16:41.318Z,11.25
2022-11-17T18:19:09.819Z,12.00
2022-11-17T18:21:41.008Z,11.00
2022-11-17T18:24:10.077Z,12.75
2022-11-17T18:26:38.131Z,14.50
2022-11-17T18:29:15.155Z,14.25
2022-11-17T18:31:43.180Z,14.00
2022-11-17T18:34:17.078Z,13.00
2022-11-17T18:36:44.083Z,12.00
2022-11-17T18:39:11.787Z,14.00
2022-11-17T18:41:38.956Z,18.25
2022-11-17T18:44:06.508Z,13.25
2022-11-17T18:46:34.129Z,12.75
2022-11-17T18:49:01.834Z,15.25
2022-11-17T18:51:31.563Z,15.00
2022-11-17T18:54:00.999Z,11.00
2022-11-17T18:56:34.307Z,13.25
2022-11-17T18:59:02.367Z,15.25
2022-11-17T19:01:30.526Z,12.50
2022-11-17T19:04:02.931Z,12.50
2022-11-17T19:06:30.844Z,15.75
2022-11-17T19:08:59.941Z,15.25
2022-11-17T19:11:28.736Z,15.50
2022-11-17T19:13:56.404Z,18.75
2022-11-17T19:16:25.361Z,14.75
2022-11-17T19:18:55.764Z,15.25
2022-11-17T19:21:28.401Z,14.25
2022-11-17T19:23:58.760Z,14.75
2022-11-17T19:26:29.098Z,20.00
2022-11-17T19:29:04.103Z,18.75
2022-11-17T19:31:31.606Z,17.25
2022-11-17T19:33:59.975Z,16.75
2022-11-17T19:36:32.343Z,15.75
2022-11-17T19:39:01.845Z,13.50
2022-11-17T19:41:41.466Z,16.25
2022-11-17T19:44:09.426Z,15.50
2022-11-17T19:46:37.749Z,17.00
2022-11-17T19:49:07.709Z,18.00
2022-11-17T19:51:37.241Z,16.25
2022-11-17T19:54:08.071Z,17.50
2022-11-17T19:56:36.080Z,15.00
2022-11-17T19:59:05.095Z,15.50
2022-11-17T20:01:33.355Z,15.25
2022-11-17T20:04:02.292Z,13.75
2022-11-17T20:06:34.979Z,17.25
2022-11-17T20:09:06.774Z,17.75
2022-11-17T20:11:34.195Z,13.50
2022-11-17T20:14:02.658Z,18.75
2022-11-17T20:16:33.475Z,15.00
2022-11-17T20:19:02.890Z,16.50
2022-11-17T20:21:31.338Z,17.00
2022-11-17T20:23:59.826Z,14.50
2022-11-17T23:03:25.805Z,17.50
2022-11-17T23:05:53.175Z,19.75
2022-11-17T23:08:20.155Z,22.50
2022-11-17T23:10:47.523Z,17.25
2022-11-17T23:13:14.672Z,19.00
2022-11-17T23:15:42.012Z,20.75
2022-11-17T23:18:09.063Z,17.50
2022-11-17T23:20:36.682Z,22.00
2022-11-17T23:23:03.735Z,17.00
2022-11-17T23:25:31.132Z,16.75
2022-11-17T23:27:58.157Z,11.00
2022-11-17T23:30:25.561Z,17.50
2022-11-17T23:32:55.234Z,15.00
2022-11-17T23:35:23.188Z,15.00
2022-11-17T23:37:50.216Z,18.50
2022-11-17T23:40:18.212Z,17.50
2022-11-17T23:42:45.363Z,0.00
2022-11-17T23:45:13.125Z,20.75
2022-11-17T23:47:40.357Z,23.25
2022-11-17T23:50:10.849Z,21.75
2022-11-17T23:52:38.034Z,23.75
2022-11-17T23:55:05.824Z,16.67
2022-11-17T23:57:32.886Z,18.00
